sensor_id;sensor_type;location;lat;lon;timestamp;pressure;altitude;pressure_sealevel;temperature;humidity
28510;BME280;15723;55.684;37.928;2023-02-03T00:01:12;99423.28;;;0.57;78.88
28510;BME280;15723;55.684;37.928;2023-02-03T00:03:38;99420.94;;;0.75;77.97
28510;BME280;15723;55.684;37.928;2023-02-03T00:06:04;99417.81;;;0.88;77.76
28510;BME280;15723;55.684;37.928;2023-02-03T00:08:31;99417.72;;;0.63;79.82
28510;BME280;15723;55.684;37.928;2023-02-03T00:10:58;99413.81;;;0.74;78.83
28510;BME280;15723;55.684;37.928;2023-02-03T00:13:24;99417.97;;;0.56;78.37
28510;BME280;15723;55.684;37.928;2023-02-03T00:15:51;99412.47;;;0.60;78.39
28510;BME280;15723;55.684;37.928;2023-02-03T00:18:18;99415.81;;;0.95;78.32
28510;BME280;15723;55.684;37.928;2023-02-03T00:20:44;99413.66;;;0.80;79.08
28510;BME280;15723;55.684;37.928;2023-02-03T00:23:11;99405.94;;;0.97;78.25
28510;BME280;15723;55.684;37.928;2023-02-03T00:25:38;99405.31;;;0.89;78.01
28510;BME280;15723;55.684;37.928;2023-02-03T00:28:05;99409.03;;;0.85;76.96
28510;BME280;15723;55.684;37.928;2023-02-03T00:30:34;99411.69;;;0.85;77.56
28510;BME280;15723;55.684;37.928;2023-02-03T00:33:02;99417.53;;;0.70;78.45
28510;BME280;15723;55.684;37.928;2023-02-03T00:35:29;99420.78;;;0.79;79.21
28510;BME280;15723;55.684;37.928;2023-02-03T00:37:57;99415.50;;;0.50;79.65
28510;BME280;15723;55.684;37.928;2023-02-03T00:40:25;99413.88;;;0.72;80.55
28510;BME280;15723;55.684;37.928;2023-02-03T00:42:51;99417.00;;;0.58;79.73
28510;BME280;15723;55.684;37.928;2023-02-03T00:45:18;99419.72;;;0.57;80.22
28510;BME280;15723;55.684;37.928;2023-02-03T00:47:44;99414.44;;;0.55;79.80
28510;BME280;15723;55.684;37.928;2023-02-03T00:50:10;99413.00;;;0.72;80.04
28510;BME280;15723;55.684;37.928;2023-02-03T00:52:37;99418.34;;;0.72;79.71
28510;BME280;15723;55.684;37.928;2023-02-03T00:55:04;99421.53;;;0.56;79.88
28510;BME280;15723;55.684;37.928;2023-02-03T00:57:31;99416.75;;;0.66;80.23
28510;BME280;15723;55.684;37.928;2023-02-03T00:59:57;99418.13;;;0.51;79.88
28510;BME280;15723;55.684;37.928;2023-02-03T01:02:23;99415.22;;;0.59;80.44
28510;BME280;15723;55.684;37.928;2023-02-03T01:04:51;99413.19;;;0.39;81.03
28510;BME280;15723;55.684;37.928;2023-02-03T01:07:17;99410.06;;;0.53;81.24
28510;BME280;15723;55.684;37.928;2023-02-03T01:09:44;99413.13;;;0.41;79.27
28510;BME280;15723;55.684;37.928;2023-02-03T01:12:10;99416.28;;;0.53;80.23
28510;BME280;15723;55.684;37.928;2023-02-03T01:14:36;99404.31;;;0.37;80.41
28510;BME280;15723;55.684;37.928;2023-02-03T01:17:03;99402.88;;;0.55;79.90
28510;BME280;15723;55.684;37.928;2023-02-03T01:19:30;99402.94;;;0.53;78.81
28510;BME280;15723;55.684;37.928;2023-02-03T01:21:56;99403.94;;;0.49;78.67
28510;BME280;15723;55.684;37.928;2023-02-03T01:24:22;99403.34;;;0.68;78.37
28510;BME280;15723;55.684;37.928;2023-02-03T01:26:48;99403.41;;;0.38;79.80
28510;BME280;15723;55.684;37.928;2023-02-03T01:29:14;99394.19;;;0.48;79.52
28510;BME280;15723;55.684;37.928;2023-02-03T01:31:41;99402.47;;;0.67;79.02
28510;BME280;15723;55.684;37.928;2023-02-03T01:34:11;99398.31;;;0.58;77.59
28510;BME280;15723;55.684;37.928;2023-02-03T01:36:38;99398.00;;;0.68;78.71
28510;BME280;15723;55.684;37.928;2023-02-03T01:39:05;99400.63;;;0.69;78.57
28510;BME280;15723;55.684;37.928;2023-02-03T01:41:34;99398.91;;;0.40;79.53
28510;BME280;15723;55.684;37.928;2023-02-03T01:44:30;99403.78;;;0.82;78.54
28510;BME280;15723;55.684;37.928;2023-02-03T01:46:48;99400.75;;;0.38;78.55
28510;BME280;15723;55.684;37.928;2023-02-03T01:49:23;99396.84;;;0.48;78.80
28510;BME280;15723;55.684;37.928;2023-02-03T01:51:51;99395.94;;;0.49;79.88
28510;BME280;15723;55.684;37.928;2023-02-03T01:54:22;99397.19;;;0.66;79.93
28510;BME280;15723;55.684;37.928;2023-02-03T01:57:01;99402.28;;;0.73;79.74
28510;BME280;15723;55.684;37.928;2023-02-03T01:59:30;99386.94;;;0.80;79.21
28510;BME280;15723;55.684;37.928;2023-02-03T02:01:57;99386.94;;;0.80;77.67
28510;BME280;15723;55.684;37.928;2023-02-03T02:04:28;99388.63;;;0.82;77.84
28510;BME280;15723;55.684;37.928;2023-02-03T02:06:59;99396.78;;;1.04;78.36
28510;BME280;15723;55.684;37.928;2023-02-03T02:09:26;99391.72;;;0.97;78.01
28510;BME280;15723;55.684;37.928;2023-02-03T02:11:53;99382.91;;;0.93;78.31
28510;BME280;15723;55.684;37.928;2023-02-03T02:14:20;99397.22;;;0.92;78.59
28510;BME280;15723;55.684;37.928;2023-02-03T02:16:54;99393.22;;;0.79;77.78
28510;BME280;15723;55.684;37.928;2023-02-03T02:25:38;99384.34;;;0.50;80.17
28510;BME280;15723;55.684;37.928;2023-02-03T02:34:07;99381.69;;;0.77;79.97
28510;BME280;15723;55.684;37.928;2023-02-03T02:42:20;99375.22;;;0.84;79.53
28510;BME280;15723;55.684;37.928;2023-02-03T02:44:57;99378.00;;;0.81;79.28
28510;BME280;15723;55.684;37.928;2023-02-03T02:47:27;99370.13;;;0.76;79.58
28510;BME280;15723;55.684;37.928;2023-02-03T02:50:08;99368.03;;;1.12;78.80
28510;BME280;15723;55.684;37.928;2023-02-03T02:52:40;99370.53;;;0.90;79.60
28510;BME280;15723;55.684;37.928;2023-02-03T02:55:21;99371.69;;;0.55;81.11
28510;BME280;15723;55.684;37.928;2023-02-03T02:58:00;99375.78;;;0.93;79.67
28510;BME280;15723;55.684;37.928;2023-02-03T03:00:29;99372.44;;;0.87;78.97
28510;BME280;15723;55.684;37.928;2023-02-03T03:02:56;99368.41;;;1.00;79.33
28510;BME280;15723;55.684;37.928;2023-02-03T03:05:23;99371.34;;;0.66;79.14
28510;BME280;15723;55.684;37.928;2023-02-03T03:07:56;99368.00;;;0.59;79.69
28510;BME280;15723;55.684;37.928;2023-02-03T03:10:24;99371.09;;;0.47;80.45
28510;BME280;15723;55.684;37.928;2023-02-03T03:12:59;99372.41;;;0.60;80.85
28510;BME280;15723;55.684;37.928;2023-02-03T03:15:30;99369.53;;;0.67;81.50
28510;BME280;15723;55.684;37.928;2023-02-03T03:21:04;99363.91;;;0.76;81.35
28510;BME280;15723;55.684;37.928;2023-02-03T03:23:37;99366.22;;;0.86;80.97
28510;BME280;15723;55.684;37.928;2023-02-03T03:29:16;99379.53;;;0.88;80.64
28510;BME280;15723;55.684;37.928;2023-02-03T03:31:43;99376.94;;;1.11;80.91
28510;BME280;15723;55.684;37.928;2023-02-03T03:34:11;99374.59;;;1.02;79.79
28510;BME280;15723;55.684;37.928;2023-02-03T03:36:43;99379.16;;;0.72;80.02
28510;BME280;15723;55.684;37.928;2023-02-03T03:41:59;99372.50;;;0.85;79.26
28510;BME280;15723;55.684;37.928;2023-02-03T03:44:30;99383.28;;;0.82;80.64
28510;BME280;15723;55.684;37.928;2023-02-03T03:47:09;99381.84;;;0.99;80.33
28510;BME280;15723;55.684;37.928;2023-02-03T03:49:40;99381.69;;;0.77;79.50
28510;BME280;15723;55.684;37.928;2023-02-03T03:52:09;99384.63;;;0.96;80.61
28510;BME280;15723;55.684;37.928;2023-02-03T03:54:37;99382.25;;;0.86;78.94
28510;BME280;15723;55.684;37.928;2023-02-03T03:57:36;99380.91;;;0.73;78.88
28510;BME280;15723;55.684;37.928;2023-02-03T04:00:09;99387.03;;;1.03;79.34
28510;BME280;15723;55.684;37.928;2023-02-03T04:02:39;99388.72;;;1.06;80.06
28510;BME280;15723;55.684;37.928;2023-02-03T04:05:09;99379.19;;;1.23;79.22
28510;BME280;15723;55.684;37.928;2023-02-03T04:07:46;99388.81;;;1.03;78.88
28510;BME280;15723;55.684;37.928;2023-02-03T04:10:25;99379.53;;;1.14;79.89
28510;BME280;15723;55.684;37.928;2023-02-03T04:12:54;99386.41;;;1.21;79.81
28510;BME280;15723;55.684;37.928;2023-02-03T04:15:20;99384.72;;;1.19;80.96
28510;BME280;15723;55.684;37.928;2023-02-03T04:17:46;99385.38;;;0.99;79.17
28510;BME280;15723;55.684;37.928;2023-02-03T04:20:13;99375.47;;;1.03;79.43
28510;BME280;15723;55.684;37.928;2023-02-03T04:22:39;99380.13;;;1.22;79.86
28510;BME280;15723;55.684;37.928;2023-02-03T04:25:06;99378.50;;;1.18;79.69
28510;BME280;15723;55.684;37.928;2023-02-03T04:27:33;99386.75;;;1.11;79.32
28510;BME280;15723;55.684;37.928;2023-02-03T04:30:00;99391.38;;;1.06;79.90
28510;BME280;15723;55.684;37.928;2023-02-03T04:32:26;99385.00;;;1.10;80.87
28510;BME280;15723;55.684;37.928;2023-02-03T04:34:52;99388.59;;;1.09;80.62
28510;BME280;15723;55.684;37.928;2023-02-03T04:37:19;99386.81;;;1.09;81.11
28510;BME280;15723;55.684;37.928;2023-02-03T04:39:45;99388.31;;;1.18;81.01
28510;BME280;15723;55.684;37.928;2023-02-03T04:42:12;99384.38;;;1.28;80.53
28510;BME280;15723;55.684;37.928;2023-02-03T04:44:38;99373.50;;;1.08;80.64
28510;BME280;15723;55.684;37.928;2023-02-03T04:47:04;99376.84;;;1.14;80.31
28510;BME280;15723;55.684;37.928;2023-02-03T04:49:30;99370.06;;;2.02;79.71
28510;BME280;15723;55.684;37.928;2023-02-03T04:51:56;99375.66;;;2.41;78.07
28510;BME280;15723;55.684;37.928;2023-02-03T04:54:22;99361.78;;;2.32;76.63
28510;BME280;15723;55.684;37.928;2023-02-03T04:56:50;99369.06;;;2.28;76.75
28510;BME280;15723;55.684;37.928;2023-02-03T04:59:16;99368.38;;;2.23;77.02
28510;BME280;15723;55.684;37.928;2023-02-03T05:01:42;99361.44;;;3.05;75.34
28510;BME280;15723;55.684;37.928;2023-02-03T05:04:08;99380.78;;;2.02;76.56
28510;BME280;15723;55.684;37.928;2023-02-03T05:06:35;99371.16;;;2.65;77.34
28510;BME280;15723;55.684;37.928;2023-02-03T05:09:01;99361.81;;;2.96;75.36
28510;BME280;15723;55.684;37.928;2023-02-03T05:11:28;99365.34;;;2.98;74.24
28510;BME280;15723;55.684;37.928;2023-02-03T05:13:54;99368.75;;;2.58;73.91
28510;BME280;15723;55.684;37.928;2023-02-03T05:16:20;99361.91;;;3.14;73.87
28510;BME280;15723;55.684;37.928;2023-02-03T05:18:47;99370.63;;;2.99;74.03
28510;BME280;15723;55.684;37.928;2023-02-03T05:21:13;99368.94;;;2.53;76.50
28510;BME280;15723;55.684;37.928;2023-02-03T05:23:39;99374.31;;;2.31;76.05
28510;BME280;15723;55.684;37.928;2023-02-03T05:26:06;99369.50;;;2.83;75.23
28510;BME280;15723;55.684;37.928;2023-02-03T05:28:32;99378.78;;;2.96;74.65
28510;BME280;15723;55.684;37.928;2023-02-03T05:30:59;99375.06;;;3.00;74.86
28510;BME280;15723;55.684;37.928;2023-02-03T05:33:27;99369.84;;;3.38;73.09
28510;BME280;15723;55.684;37.928;2023-02-03T05:35:54;99368.28;;;2.70;74.57
28510;BME280;15723;55.684;37.928;2023-02-03T05:38:22;99363.13;;;3.28;73.48
28510;BME280;15723;55.684;37.928;2023-02-03T05:40:50;99360.81;;;3.40;72.31
28510;BME280;15723;55.684;37.928;2023-02-03T05:43:36;99365.25;;;3.81;72.60
28510;BME280;15723;55.684;37.928;2023-02-03T05:46:04;99368.50;;;2.86;72.42
28510;BME280;15723;55.684;37.928;2023-02-03T05:48:31;99368.97;;;3.17;73.42
28510;BME280;15723;55.684;37.928;2023-02-03T05:50:57;99368.22;;;3.34;73.63
28510;BME280;15723;55.684;37.928;2023-02-03T05:53:24;99369.00;;;3.37;72.76
28510;BME280;15723;55.684;37.928;2023-02-03T05:55:52;99378.41;;;3.26;72.77
28510;BME280;15723;55.684;37.928;2023-02-03T05:58:18;99364.81;;;3.51;73.09
28510;BME280;15723;55.684;37.928;2023-02-03T06:00:45;99379.81;;;3.34;73.18
28510;BME280;15723;55.684;37.928;2023-02-03T06:03:12;99385.78;;;2.78;74.43
28510;BME280;15723;55.684;37.928;2023-02-03T06:05:38;99369.16;;;3.53;73.61
28510;BME280;15723;55.684;37.928;2023-02-03T06:08:07;99378.97;;;3.54;71.91
28510;BME280;15723;55.684;37.928;2023-02-03T06:10:33;99376.03;;;3.40;72.91
28510;BME280;15723;55.684;37.928;2023-02-03T06:13:07;99382.31;;;3.19;71.47
28510;BME280;15723;55.684;37.928;2023-02-03T06:15:34;99377.09;;;3.56;72.27
28510;BME280;15723;55.684;37.928;2023-02-03T06:18:00;99376.53;;;3.68;71.51
28510;BME280;15723;55.684;37.928;2023-02-03T06:20:27;99370.78;;;3.78;70.32
28510;BME280;15723;55.684;37.928;2023-02-03T06:22:53;99383.19;;;2.97;73.13
28510;BME280;15723;55.684;37.928;2023-02-03T06:25:19;99383.47;;;3.54;71.62
28510;BME280;15723;55.684;37.928;2023-02-03T06:27:45;99385.94;;;3.58;71.69
28510;BME280;15723;55.684;37.928;2023-02-03T06:30:12;99385.41;;;4.10;70.65
28510;BME280;15723;55.684;37.928;2023-02-03T06:32:38;99379.41;;;3.64;70.34
28510;BME280;15723;55.684;37.928;2023-02-03T06:35:05;99384.81;;;4.03;70.26
28510;BME280;15723;55.684;37.928;2023-02-03T06:37:34;99383.53;;;4.12;70.65
28510;BME280;15723;55.684;37.928;2023-02-03T06:40:01;99383.47;;;3.93;70.31
28510;BME280;15723;55.684;37.928;2023-02-03T06:42:30;99381.50;;;3.78;70.82
28510;BME280;15723;55.684;37.928;2023-02-03T06:44:56;99379.41;;;3.64;71.42
28510;BME280;15723;55.684;37.928;2023-02-03T06:47:23;99375.66;;;3.88;70.23
28510;BME280;15723;55.684;37.928;2023-02-03T06:49:49;99381.09;;;3.26;70.48
28510;BME280;15723;55.684;37.928;2023-02-03T06:52:17;99377.16;;;3.94;71.14
28510;BME280;15723;55.684;37.928;2023-02-03T06:54:43;99376.19;;;4.15;70.25
28510;BME280;15723;55.684;37.928;2023-02-03T06:57:10;99373.94;;;4.25;70.31
28510;BME280;15723;55.684;37.928;2023-02-03T06:59:36;99383.16;;;4.19;70.68
28510;BME280;15723;55.684;37.928;2023-02-03T07:02:03;99386.59;;;3.84;72.21
28510;BME280;15723;55.684;37.928;2023-02-03T07:04:29;99373.47;;;3.57;73.28
28510;BME280;15723;55.684;37.928;2023-02-03T07:06:58;99374.13;;;4.01;71.41
28510;BME280;15723;55.684;37.928;2023-02-03T07:09:24;99386.16;;;3.54;72.86
28510;BME280;15723;55.684;37.928;2023-02-03T07:11:51;99378.84;;;3.37;73.91
28510;BME280;15723;55.684;37.928;2023-02-03T07:14:17;99390.63;;;3.53;73.37
28510;BME280;15723;55.684;37.928;2023-02-03T07:16:43;99384.66;;;3.67;72.92
28510;BME280;15723;55.684;37.928;2023-02-03T07:19:09;99380.94;;;3.90;72.48
28510;BME280;15723;55.684;37.928;2023-02-03T07:21:36;99391.03;;;4.03;72.59
28510;BME280;15723;55.684;37.928;2023-02-03T07:24:02;99385.41;;;4.28;71.87
28510;BME280;15723;55.684;37.928;2023-02-03T07:26:28;99390.00;;;3.26;72.75
28510;BME280;15723;55.684;37.928;2023-02-03T07:28:54;99385.22;;;3.75;73.05
28510;BME280;15723;55.684;37.928;2023-02-03T07:31:21;99382.03;;;3.86;73.38
28510;BME280;15723;55.684;37.928;2023-02-03T07:33:47;99382.97;;;4.03;72.56
28510;BME280;15723;55.684;37.928;2023-02-03T07:36:14;99382.44;;;3.76;72.35
28510;BME280;15723;55.684;37.928;2023-02-03T07:38:40;99378.94;;;4.32;71.50
28510;BME280;15723;55.684;37.928;2023-02-03T07:41:06;99373.06;;;4.62;70.68
28510;BME280;15723;55.684;37.928;2023-02-03T07:43:32;99373.38;;;4.73;69.94
28510;BME280;15723;55.684;37.928;2023-02-03T07:45:59;99374.88;;;4.97;69.82
28510;BME280;15723;55.684;37.928;2023-02-03T07:48:27;99370.53;;;4.95;69.84
28510;BME280;15723;55.684;37.928;2023-02-03T07:50:54;99365.63;;;4.86;69.73
28510;BME280;15723;55.684;37.928;2023-02-03T07:53:20;99380.31;;;4.60;70.49
28510;BME280;15723;55.684;37.928;2023-02-03T07:55:46;99373.78;;;4.65;70.47
28510;BME280;15723;55.684;37.928;2023-02-03T07:58:12;99374.66;;;4.28;70.21
28510;BME280;15723;55.684;37.928;2023-02-03T08:00:39;99368.13;;;4.53;70.55
28510;BME280;15723;55.684;37.928;2023-02-03T08:03:05;99371.31;;;3.45;72.44
28510;BME280;15723;55.684;37.928;2023-02-03T08:05:32;99370.13;;;3.91;72.71
28510;BME280;15723;55.684;37.928;2023-02-03T08:07:58;99363.78;;;4.31;71.82
28510;BME280;15723;55.684;37.928;2023-02-03T08:10:25;99368.53;;;4.06;71.63
28510;BME280;15723;55.684;37.928;2023-02-03T08:12:54;99363.53;;;3.59;72.46
28510;BME280;15723;55.684;37.928;2023-02-03T08:15:21;99364.41;;;4.55;71.14
28510;BME280;15723;55.684;37.928;2023-02-03T08:17:48;99370.53;;;4.21;72.03
28510;BME280;15723;55.684;37.928;2023-02-03T08:20:15;99365.78;;;4.64;71.14
28510;BME280;15723;55.684;37.928;2023-02-03T08:22:41;99370.28;;;4.63;70.79
28510;BME280;15723;55.684;37.928;2023-02-03T08:25:11;99374.81;;;4.80;69.67
28510;BME280;15723;55.684;37.928;2023-02-03T08:27:39;99364.19;;;4.41;71.52
28510;BME280;15723;55.684;37.928;2023-02-03T08:30:08;99364.56;;;4.33;71.93
28510;BME280;15723;55.684;37.928;2023-02-03T08:32:34;99363.19;;;4.44;70.06
28510;BME280;15723;55.684;37.928;2023-02-03T08:35:01;99371.50;;;4.75;70.03
28510;BME280;15723;55.684;37.928;2023-02-03T08:37:27;99356.22;;;4.94;69.32
28510;BME280;15723;55.684;37.928;2023-02-03T08:39:57;99361.44;;;5.15;69.14
28510;BME280;15723;55.684;37.928;2023-02-03T08:42:24;99352.56;;;5.13;68.99
28510;BME280;15723;55.684;37.928;2023-02-03T08:44:50;99360.19;;;5.22;68.29
28510;BME280;15723;55.684;37.928;2023-02-03T08:47:17;99362.44;;;4.40;69.03
28510;BME280;15723;55.684;37.928;2023-02-03T08:49:44;99357.28;;;3.59;72.56
28510;BME280;15723;55.684;37.928;2023-02-03T08:52:11;99359.00;;;4.74;70.81
28510;BME280;15723;55.684;37.928;2023-02-03T08:54:38;99360.00;;;4.17;71.20
28510;BME280;15723;55.684;37.928;2023-02-03T08:57:05;99363.47;;;4.37;72.13
28510;BME280;15723;55.684;37.928;2023-02-03T08:59:32;99367.53;;;4.65;70.50
28510;BME280;15723;55.684;37.928;2023-02-03T09:02:04;99360.56;;;4.42;70.36
28510;BME280;15723;55.684;37.928;2023-02-03T09:04:32;99363.03;;;3.90;72.04
28510;BME280;15723;55.684;37.928;2023-02-03T09:07:00;99365.34;;;3.59;72.51
28510;BME280;15723;55.684;37.928;2023-02-03T09:09:27;99365.41;;;3.96;73.51
28510;BME280;15723;55.684;37.928;2023-02-03T09:11:54;99360.94;;;4.16;72.78
28510;BME280;15723;55.684;37.928;2023-02-03T09:14:28;99362.78;;;3.76;73.48
28510;BME280;15723;55.684;37.928;2023-02-03T09:16:55;99365.75;;;4.09;72.88
28510;BME280;15723;55.684;37.928;2023-02-03T09:19:21;99367.88;;;3.62;72.00
28510;BME280;15723;55.684;37.928;2023-02-03T09:21:48;99371.03;;;3.31;72.87
28510;BME280;15723;55.684;37.928;2023-02-03T09:24:15;99363.56;;;3.39;73.00
28510;BME280;15723;55.684;37.928;2023-02-03T09:26:41;99368.66;;;3.45;73.00
28510;BME280;15723;55.684;37.928;2023-02-03T09:29:08;99364.47;;;3.18;73.68
28510;BME280;15723;55.684;37.928;2023-02-03T09:31:34;99367.25;;;3.36;73.58
28510;BME280;15723;55.684;37.928;2023-02-03T09:34:01;99354.22;;;3.07;74.22
28510;BME280;15723;55.684;37.928;2023-02-03T09:36:28;99356.50;;;3.16;75.20
28510;BME280;15723;55.684;37.928;2023-02-03T09:38:55;99356.50;;;3.16;74.37
28510;BME280;15723;55.684;37.928;2023-02-03T09:44:23;99350.09;;;3.80;74.82
28510;BME280;15723;55.684;37.928;2023-02-03T09:46:59;99346.47;;;4.37;73.80
28510;BME280;15723;55.684;37.928;2023-02-03T09:49:41;99346.06;;;3.69;75.54
28510;BME280;15723;55.684;37.928;2023-02-03T09:54:53;99356.16;;;4.22;75.11
28510;BME280;15723;55.684;37.928;2023-02-03T09:57:24;99358.13;;;4.19;74.69
28510;BME280;15723;55.684;37.928;2023-02-03T09:59:55;99359.53;;;4.45;74.83
28510;BME280;15723;55.684;37.928;2023-02-03T10:07:50;99347.34;;;5.10;71.58
28510;BME280;15723;55.684;37.928;2023-02-03T10:10:46;99348.78;;;5.34;71.97
28510;BME280;15723;55.684;37.928;2023-02-03T10:17:51;99345.91;;;5.72;70.10
28510;BME280;15723;55.684;37.928;2023-02-03T10:19:47;99343.06;;;5.06;71.30
28510;BME280;15723;55.684;37.928;2023-02-03T10:22:19;99339.94;;;4.43;71.68
28510;BME280;15723;55.684;37.928;2023-02-03T10:25:02;99344.97;;;4.86;71.13
28510;BME280;15723;55.684;37.928;2023-02-03T10:27:32;99341.91;;;5.11;71.26
28510;BME280;15723;55.684;37.928;2023-02-03T10:30:05;99343.63;;;4.59;70.53
28510;BME280;15723;55.684;37.928;2023-02-03T10:32:37;99331.00;;;4.78;71.63
28510;BME280;15723;55.684;37.928;2023-02-03T10:35:10;99336.28;;;5.16;70.54
28510;BME280;15723;55.684;37.928;2023-02-03T10:37:49;99331.38;;;5.24;70.62
28510;BME280;15723;55.684;37.928;2023-02-03T10:40:24;99322.88;;;5.49;69.64
28510;BME280;15723;55.684;37.928;2023-02-03T10:42:51;99318.66;;;5.78;68.42
28510;BME280;15723;55.684;37.928;2023-02-03T10:45:37;99324.19;;;5.75;68.10
28510;BME280;15723;55.684;37.928;2023-02-03T10:48:05;99327.16;;;5.18;68.06
28510;BME280;15723;55.684;37.928;2023-02-03T10:50:35;99317.75;;;5.44;67.83
28510;BME280;15723;55.684;37.928;2023-02-03T10:53:34;99328.59;;;5.93;67.95
28510;BME280;15723;55.684;37.928;2023-02-03T10:56:04;99315.53;;;6.03;65.85
28510;BME280;15723;55.684;37.928;2023-02-03T10:58:32;99321.69;;;5.87;66.45
28510;BME280;15723;55.684;37.928;2023-02-03T11:03:34;99322.63;;;5.53;68.98
28510;BME280;15723;55.684;37.928;2023-02-03T11:06:10;99310.38;;;5.98;66.40
28510;BME280;15723;55.684;37.928;2023-02-03T11:08:40;99308.56;;;6.14;65.89
28510;BME280;15723;55.684;37.928;2023-02-03T11:11:18;99311.97;;;6.18;66.96
28510;BME280;15723;55.684;37.928;2023-02-03T11:13:45;99313.25;;;5.27;67.41
28510;BME280;15723;55.684;37.928;2023-02-03T11:16:17;99296.66;;;5.85;66.87
28510;BME280;15723;55.684;37.928;2023-02-03T11:19:02;99313.47;;;5.40;68.26
28510;BME280;15723;55.684;37.928;2023-02-03T11:21:39;99304.00;;;5.33;66.52
28510;BME280;15723;55.684;37.928;2023-02-03T11:24:19;99303.44;;;5.77;66.97
28510;BME280;15723;55.684;37.928;2023-02-03T11:26:54;99320.16;;;5.33;66.02
28510;BME280;15723;55.684;37.928;2023-02-03T11:29:30;99311.97;;;5.85;67.56
28510;BME280;15723;55.684;37.928;2023-02-03T11:32:01;99319.84;;;5.22;69.22
28510;BME280;15723;55.684;37.928;2023-02-03T11:34:33;99316.78;;;4.76;67.62
28510;BME280;15723;55.684;37.928;2023-02-03T11:42:45;99317.59;;;4.95;69.14
28510;BME280;15723;55.684;37.928;2023-02-03T11:45:44;99320.72;;;4.69;70.29
28510;BME280;15723;55.684;37.928;2023-02-03T11:48:35;99312.28;;;4.77;70.40
28510;BME280;15723;55.684;37.928;2023-02-03T11:59:43;99297.00;;;6.28;65.82
28510;BME280;15723;55.684;37.928;2023-02-03T12:05:25;99302.78;;;5.39;67.24
28510;BME280;15723;55.684;37.928;2023-02-03T12:21:55;99294.03;;;5.35;65.88
28510;BME280;15723;55.684;37.928;2023-02-03T12:24:43;99288.50;;;5.54;64.47
28510;BME280;15723;55.684;37.928;2023-02-03T12:27:25;99291.78;;;5.60;64.82
28510;BME280;15723;55.684;37.928;2023-02-03T12:30:04;99292.63;;;5.94;65.08
28510;BME280;15723;55.684;37.928;2023-02-03T12:32:39;99287.41;;;5.91;63.45
28510;BME280;15723;55.684;37.928;2023-02-03T12:35:35;99282.66;;;5.96;64.35
28510;BME280;15723;55.684;37.928;2023-02-03T12:38:11;99287.19;;;6.27;64.05
28510;BME280;15723;55.684;37.928;2023-02-03T12:40:46;99280.75;;;6.14;63.34
28510;BME280;15723;55.684;37.928;2023-02-03T12:43:21;99294.75;;;5.21;65.40
28510;BME280;15723;55.684;37.928;2023-02-03T12:46:00;99289.00;;;5.78;65.35
28510;BME280;15723;55.684;37.928;2023-02-03T12:48:44;99288.22;;;5.60;64.90
28510;BME280;15723;55.684;37.928;2023-02-03T12:51:18;99278.59;;;5.54;64.64
28510;BME280;15723;55.684;37.928;2023-02-03T12:53:52;99287.06;;;4.96;66.47
28510;BME280;15723;55.684;37.928;2023-02-03T12:56:36;99291.00;;;4.72;67.63
28510;BME280;15723;55.684;37.928;2023-02-03T12:59:19;99292.88;;;4.34;70.16
28510;BME280;15723;55.684;37.928;2023-02-03T13:02:09;99298.34;;;4.32;69.80
28510;BME280;15723;55.684;37.928;2023-02-03T13:05:18;99295.22;;;4.04;70.83
28510;BME280;15723;55.684;37.928;2023-02-03T13:07:53;99296.63;;;4.13;71.45
28510;BME280;15723;55.684;37.928;2023-02-03T13:10:51;99301.91;;;3.76;72.12
28510;BME280;15723;55.684;37.928;2023-02-03T13:13:41;99296.88;;;3.50;71.36
28510;BME280;15723;55.684;37.928;2023-02-03T13:16:10;99293.06;;;3.74;73.04
28510;BME280;15723;55.684;37.928;2023-02-03T13:18:41;99294.31;;;3.47;72.27
28510;BME280;15723;55.684;37.928;2023-02-03T13:21:11;99294.25;;;3.67;73.86
28510;BME280;15723;55.684;37.928;2023-02-03T13:23:41;99302.38;;;3.66;73.08
28510;BME280;15723;55.684;37.928;2023-02-03T13:29:26;99291.63;;;3.27;73.28
28510;BME280;15723;55.684;37.928;2023-02-03T13:32:48;99296.66;;;3.55;74.46
28510;BME280;15723;55.684;37.928;2023-02-03T13:35:25;99301.88;;;3.58;74.52
28510;BME280;15723;55.684;37.928;2023-02-03T13:40:58;99291.63;;;3.27;75.31
28510;BME280;15723;55.684;37.928;2023-02-03T13:43:33;99292.72;;;3.23;75.72
28510;BME280;15723;55.684;37.928;2023-02-03T13:46:02;99286.13;;;3.30;76.67
28510;BME280;15723;55.684;37.928;2023-02-03T13:48:31;99295.88;;;3.12;76.52
28510;BME280;15723;55.684;37.928;2023-02-03T13:51:16;99296.69;;;3.14;76.59
28510;BME280;15723;55.684;37.928;2023-02-03T13:53:46;99295.63;;;2.98;77.43
28510;BME280;15723;55.684;37.928;2023-02-03T13:56:22;99302.72;;;3.19;77.19
28510;BME280;15723;55.684;37.928;2023-02-03T13:59:02;99311.22;;;2.88;79.35
28510;BME280;15723;55.684;37.928;2023-02-03T14:01:40;99306.59;;;2.92;78.57
28510;BME280;15723;55.684;37.928;2023-02-03T14:06:55;99305.22;;;3.03;78.23
28510;BME280;15723;55.684;37.928;2023-02-03T14:14:57;99320.31;;;2.64;80.85
28510;BME280;15723;55.684;37.928;2023-02-03T14:20:31;99299.81;;;2.63;81.66
28510;BME280;15723;55.684;37.928;2023-02-03T14:25:30;99302.09;;;2.50;81.64
28510;BME280;15723;55.684;37.928;2023-02-03T14:28:12;99307.78;;;2.42;82.88
28510;BME280;15723;55.684;37.928;2023-02-03T14:31:19;99304.91;;;2.47;83.68
28510;BME280;15723;55.684;37.928;2023-02-03T14:39:03;99304.75;;;2.72;82.53
28510;BME280;15723;55.684;37.928;2023-02-03T14:50:38;99311.00;;;2.50;83.54
28510;BME280;15723;55.684;37.928;2023-02-03T14:53:42;99312.03;;;2.26;83.96
28510;BME280;15723;55.684;37.928;2023-02-03T14:56:30;99323.53;;;2.50;84.28
28510;BME280;15723;55.684;37.928;2023-02-03T14:59:26;99311.25;;;2.44;84.10
28510;BME280;15723;55.684;37.928;2023-02-03T15:02:14;99308.75;;;2.18;84.08
28510;BME280;15723;55.684;37.928;2023-02-03T15:04:42;99312.63;;;2.33;84.85
28510;BME280;15723;55.684;37.928;2023-02-03T15:07:36;99318.47;;;2.20;84.99
28510;BME280;15723;55.684;37.928;2023-02-03T15:10:11;99311.97;;;2.28;84.85